createdAt,value
2022-11-22T00:02:27.363Z,93.75
2022-11-22T00:05:31.316Z,94.13
2022-11-22T00:08:34.383Z,93.94
2022-11-22T00:11:36.993Z,93.87
2022-11-22T00:14:39.471Z,93.53
2022-11-22T00:17:42.032Z,93.38
2022-11-22T00:20:45.813Z,93.56
2022-11-22T00:23:49.236Z,93.91
2022-11-22T00:26:51.704Z,94.01
2022-11-22T00:29:54.223Z,93.51
2022-11-22T00:32:56.677Z,93.33
2022-11-22T00:36:00.474Z,93.27
2022-11-22T00:39:03.139Z,93.06
2022-11-22T00:42:05.712Z,92.89
2022-11-22T00:45:09.064Z,93.08
2022-11-22T00:48:11.572Z,93.12
2022-11-22T00:51:15.399Z,92.70
2022-11-22T00:54:17.860Z,92.50
2022-11-22T00:57:20.331Z,92.68
2022-11-22T01:00:23.230Z,93.52
2022-11-22T01:03:26.320Z,93.29
2022-11-22T01:06:30.250Z,92.20
2022-11-22T01:09:32.892Z,92.01
2022-11-22T01:12:40.983Z,92.19
2022-11-22T01:15:43.445Z,92.48
2022-11-22T01:18:45.895Z,92.39
2022-11-22T01:21:49.738Z,92.20
2022-11-22T01:24:52.223Z,92.87
2022-11-22T01:27:54.656Z,92.69
2022-11-22T01:30:57.118Z,92.84
2022-11-22T01:33:59.699Z,92.70
2022-11-22T01:37:03.858Z,93.31
2022-11-22T01:40:07.461Z,93.32
2022-11-22T01:43:17.012Z,93.18
2022-11-22T01:46:30.348Z,92.72
2022-11-22T01:49:38.360Z,93.14
2022-11-22T01:52:42.174Z,93.15
2022-11-22T01:55:45.454Z,92.40
2022-11-22T01:58:53.266Z,92.42
2022-11-22T02:01:56.248Z,92.80
2022-11-22T02:05:06.776Z,92.32
2022-11-22T02:08:15.592Z,92.04
2022-11-22T02:11:18.511Z,92.16
2022-11-22T02:14:25.385Z,91.88
2022-11-22T02:17:28.062Z,92.57
2022-11-22T02:20:31.499Z,92.06
2022-11-22T02:23:46.026Z,92.66
2022-11-22T02:26:49.823Z,91.98
2022-11-22T02:29:52.443Z,92.70
2022-11-22T02:32:54.846Z,93.30
2022-11-22T02:35:57.524Z,93.00
2022-11-22T02:39:00.037Z,93.30
2022-11-22T02:42:03.962Z,93.42
2022-11-22T02:45:07.406Z,92.72
2022-11-22T02:48:11.256Z,93.24
2022-11-22T02:51:16.990Z,93.26
2022-11-22T02:54:20.011Z,93.66
2022-11-22T02:57:24.140Z,93.98
2022-11-22T03:00:26.776Z,93.85
2022-11-22T03:03:29.823Z,93.31
2022-11-22T03:06:32.374Z,93.42
2022-11-22T03:09:34.823Z,93.39
2022-11-22T03:12:38.628Z,93.33
2022-11-22T03:15:41.032Z,94.10
2022-11-22T03:18:43.469Z,93.84
2022-11-22T03:21:46.167Z,93.30
2022-11-22T03:24:48.578Z,93.59
2022-11-22T03:27:52.416Z,93.42
2022-11-22T03:30:54.879Z,93.97
2022-11-22T03:33:57.468Z,93.63
2022-11-22T03:36:59.975Z,93.77
2022-11-22T03:40:02.495Z,93.83
2022-11-22T03:43:06.419Z,94.25
2022-11-22T03:46:14.748Z,93.96
2022-11-22T03:49:17.163Z,94.12
2022-11-22T03:52:19.575Z,93.67
2022-11-22T03:55:22.040Z,93.75
2022-11-22T03:58:25.795Z,93.79
2022-11-22T04:01:30.993Z,93.81
2022-11-22T04:04:34.449Z,94.00
2022-11-22T04:07:37.215Z,94.21
2022-11-22T04:10:39.709Z,93.99
2022-11-22T04:14:03.339Z,94.17
2022-11-22T04:17:05.722Z,94.53
2022-11-22T04:20:28.939Z,94.38
2022-11-22T04:23:34.190Z,94.61
2022-11-22T04:26:36.957Z,94.55
2022-11-22T04:29:40.762Z,94.49
2022-11-22T04:32:46.038Z,94.39
2022-11-22T04:35:49.045Z,93.89
2022-11-22T04:38:52.191Z,94.30
2022-11-22T04:42:14.535Z,94.00
2022-11-22T04:45:18.414Z,93.75
2022-11-22T04:48:20.862Z,93.94
2022-11-22T04:51:41.880Z,93.96
2022-11-22T04:54:44.416Z,94.11
2022-11-22T04:57:46.884Z,93.74
2022-11-22T05:00:50.806Z,93.79
2022-11-22T05:03:53.280Z,93.83
2022-11-22T05:06:59.748Z,93.64
2022-11-22T05:10:02.207Z,93.38
2022-11-22T05:13:04.571Z,93.59
2022-11-22T05:16:10.868Z,93.72
2022-11-22T05:19:13.361Z,93.90
2022-11-22T05:22:45.539Z,94.11
2022-11-22T05:25:48.104Z,93.65
2022-11-22T05:28:51.097Z,93.47
2022-11-22T05:31:54.858Z,93.19
2022-11-22T05:34:58.275Z,93.29
2022-11-22T05:38:00.683Z,93.12
2022-11-22T05:41:03.561Z,92.98
2022-11-22T05:44:06.396Z,93.19
2022-11-22T05:47:10.690Z,93.69
2022-11-22T05:50:13.601Z,93.35
2022-11-22T05:53:16.083Z,93.27
2022-11-22T05:56:20.710Z,93.38
2022-11-22T05:59:23.151Z,93.35
2022-11-22T06:02:27.041Z,93.02
2022-11-22T06:05:30.378Z,92.97
2022-11-22T06:08:35.317Z,92.74
2022-11-22T06:11:37.788Z,93.03
2022-11-22T06:14:43.391Z,92.69
2022-11-22T06:17:48.259Z,92.09
2022-11-22T06:20:50.751Z,92.31
2022-11-22T06:23:55.069Z,91.79
2022-11-22T06:26:57.612Z,91.76
2022-11-22T06:30:00.155Z,91.68
2022-11-22T06:33:04.528Z,91.53
2022-11-22T06:36:09.634Z,91.75
2022-11-22T06:39:12.288Z,91.54
2022-11-22T06:42:14.832Z,91.24
2022-11-22T06:45:17.266Z,91.04
2022-11-22T06:48:21.079Z,91.49
2022-11-22T06:51:25.095Z,90.53
2022-11-22T06:54:27.618Z,90.06
2022-11-22T06:57:30.058Z,89.96
2022-11-22T07:00:32.757Z,90.46
2022-11-22T07:03:37.129Z,90.40
2022-11-22T07:06:40.077Z,90.34
2022-11-22T07:09:42.666Z,90.40
2022-11-22T07:12:45.173Z,89.98
2022-11-22T07:16:07.969Z,89.72
2022-11-22T07:24:31.957Z,89.47
2022-11-22T07:27:34.374Z,88.94
2022-11-22T07:30:41.165Z,88.00
2022-11-22T07:33:46.782Z,87.12
2022-11-22T07:36:53.092Z,86.42
2022-11-22T07:39:59.666Z,85.97
2022-11-22T07:43:02.205Z,83.82
2022-11-22T07:46:10.042Z,81.75
2022-11-22T07:49:13.097Z,79.87
2022-11-22T07:52:15.640Z,79.66
2022-11-22T07:55:19.480Z,78.50
2022-11-22T07:58:21.998Z,76.55
2022-11-22T08:01:24.941Z,75.65
2022-11-22T08:04:27.547Z,74.36
2022-11-22T08:07:30.206Z,72.94
2022-11-22T08:10:35.304Z,73.02
2022-11-22T08:13:37.870Z,72.92
2022-11-22T08:16:40.364Z,71.41
2022-11-22T08:19:43.392Z,70.39
2022-11-22T08:22:45.921Z,69.10
2022-11-22T08:25:50.228Z,68.48
2022-11-22T08:28:53.773Z,68.74
2022-11-22T08:31:56.530Z,68.41
2022-11-22T08:35:02.712Z,66.53
2022-11-22T08:38:16.029Z,65.25
2022-11-22T08:41:20.599Z,65.73
2022-11-22T08:44:23.071Z,64.70
2022-11-22T08:47:25.713Z,64.03
2022-11-22T08:50:29.156Z,65.84
2022-11-22T08:53:33.655Z,65.66
2022-11-22T08:56:37.929Z,64.92
2022-11-22T08:59:40.799Z,64.78
2022-11-22T09:02:43.271Z,66.07
2022-11-22T09:09:35.680Z,62.57
2022-11-22T09:12:47.095Z,61.76
2022-11-22T09:15:49.589Z,62.66
2022-11-22T09:18:52.278Z,61.53
2022-11-22T09:21:54.772Z,61.16
2022-11-22T09:24:59.588Z,60.08
2022-11-22T09:28:03.540Z,59.90
2022-11-22T09:31:08.046Z,58.32
2022-11-22T09:34:10.604Z,58.09
2022-11-22T09:37:17.223Z,58.12
2022-11-22T09:40:27.632Z,58.86
2022-11-22T09:43:42.929Z,58.70
2022-11-22T09:46:53.845Z,59.30
2022-11-22T09:50:06.860Z,59.03
2022-11-22T09:53:15.812Z,58.74
2022-11-22T09:56:21.687Z,59.47
2022-11-22T09:59:30.500Z,62.14
2022-11-22T10:02:58.790Z,58.19
2022-11-22T10:06:04.886Z,57.46
2022-11-22T10:09:20.482Z,58.17
2022-11-22T10:12:30.448Z,57.63
2022-11-22T10:15:44.410Z,56.60
2022-11-22T10:18:55.339Z,56.24
2022-11-22T10:21:58.616Z,56.39
2022-11-22T10:25:09.680Z,57.90
2022-11-22T10:28:17.619Z,58.94
2022-11-22T10:31:26.065Z,58.25
2022-11-22T10:34:40.062Z,58.94
2022-11-22T10:37:51.876Z,57.65
2022-11-22T10:41:00.518Z,55.86
2022-11-22T10:44:16.447Z,52.87
2022-11-22T10:47:36.108Z,53.10
2022-11-22T10:50:59.719Z,55.24
2022-11-22T10:54:16.902Z,55.09
2022-11-22T10:57:29.428Z,54.80
2022-11-22T11:00:35.533Z,55.16
2022-11-22T11:03:43.883Z,54.94
2022-11-22T11:07:11.168Z,56.44
2022-11-22T11:10:27.473Z,56.39
2022-11-22T11:13:39.054Z,57.45
2022-11-22T11:16:41.636Z,58.02
2022-11-22T11:19:49.742Z,57.25
2022-11-22T11:23:13.612Z,59.43
2022-11-22T11:26:23.946Z,61.21
2022-11-22T11:29:38.136Z,60.68
2022-11-22T11:32:51.920Z,60.81
2022-11-22T11:36:05.670Z,61.71
2022-11-22T11:39:19.877Z,61.00
2022-11-22T11:42:26.963Z,61.40
2022-11-22T11:45:30.026Z,58.68
2022-11-22T11:48:41.371Z,57.49
2022-11-22T11:51:48.490Z,58.66
2022-11-22T11:54:54.374Z,59.69
2022-11-22T11:57:57.669Z,60.57
2022-11-22T12:01:00.350Z,61.15
2022-11-22T12:04:05.225Z,62.52
2022-11-22T12:07:22.770Z,61.81
2022-11-22T12:10:34.000Z,62.02
2022-11-22T12:14:04.577Z,61.97
2022-11-22T12:17:12.609Z,63.05
2022-11-22T12:20:20.125Z,64.80
2022-11-22T12:23:31.175Z,64.11
2022-11-22T12:26:33.806Z,64.48
2022-11-22T12:29:39.902Z,66.25
2022-11-22T12:32:46.889Z,67.39
2022-11-22T12:35:53.373Z,67.89
2022-11-22T12:39:01.812Z,66.45
2022-11-22T12:42:10.792Z,68.50
2022-11-22T12:45:21.004Z,70.31
2022-11-22T12:48:30.426Z,69.33
2022-11-22T12:51:40.050Z,70.40
2022-11-22T12:54:53.455Z,72.02
2022-11-22T12:58:03.599Z,72.32
2022-11-22T13:01:17.925Z,72.40
2022-11-22T13:04:27.717Z,72.33
2022-11-22T13:07:47.247Z,71.20
2022-11-22T13:10:56.128Z,71.23
2022-11-22T13:14:05.417Z,71.24
2022-11-22T13:17:08.894Z,73.16
2022-11-22T13:20:18.129Z,72.96
2022-11-22T13:23:37.127Z,72.72
2022-11-22T13:26:54.939Z,72.90
2022-11-22T13:30:00.665Z,72.87
2022-11-22T13:33:27.163Z,73.62
2022-11-22T13:36:39.131Z,72.05
2022-11-22T13:39:44.847Z,73.49
2022-11-22T13:43:27.189Z,72.71
2022-11-22T13:46:56.359Z,71.88
2022-11-22T13:49:58.926Z,73.24
2022-11-22T13:53:21.569Z,72.48
2022-11-22T13:56:58.467Z,72.08
2022-11-22T14:00:40.466Z,71.11
2022-11-22T14:03:43.067Z,70.25
2022-11-22T14:06:48.139Z,71.14
2022-11-22T14:09:55.633Z,70.77
2022-11-22T14:13:25.579Z,71.64
2022-11-22T14:16:41.324Z,72.46
2022-11-22T14:19:56.944Z,71.93
2022-11-22T14:23:06.826Z,71.24
2022-11-22T14:26:20.057Z,72.47
2022-11-22T14:29:53.548Z,72.12
2022-11-22T14:33:05.925Z,71.84
2022-11-22T14:36:15.562Z,71.82
2022-11-22T14:39:55.171Z,71.72
2022-11-22T14:43:02.143Z,72.88
2022-11-22T14:46:30.461Z,72.50
2022-11-22T14:49:43.200Z,72.59
2022-11-22T14:52:50.108Z,71.90
2022-11-22T14:55:57.398Z,72.74
2022-11-22T14:59:11.775Z,73.03
2022-11-22T15:02:52.882Z,73.04
2022-11-22T15:09:10.832Z,73.65
2022-11-22T15:09:59.318Z,73.93
2022-11-22T15:13:16.518Z,74.18
2022-11-22T15:57:52.777Z,72.36
2022-11-22T16:01:19.150Z,72.39
2022-11-22T16:04:28.075Z,72.18
2022-11-22T16:07:36.254Z,72.99
2022-11-22T16:10:42.697Z,72.65
2022-11-22T16:13:46.882Z,73.74
2022-11-22T16:16:49.584Z,75.23
2022-11-22T16:19:52.666Z,73.91
2022-11-22T16:23:15.723Z,74.48
2022-11-22T16:26:22.146Z,75.34
2022-11-22T16:29:31.953Z,75.38
2022-11-22T16:32:35.370Z,75.96
2022-11-22T16:35:38.226Z,77.02
2022-11-22T16:38:41.356Z,77.65
2022-11-22T16:41:44.224Z,76.77
2022-11-22T16:44:50.675Z,78.02
2022-11-22T16:48:16.721Z,78.65
2022-11-22T16:51:23.154Z,78.01
2022-11-22T16:54:26.866Z,77.97
2022-11-22T16:57:29.610Z,79.86
2022-11-22T17:00:35.387Z,79.22
2022-11-22T17:03:39.029Z,79.33
2022-11-22T17:06:43.789Z,79.28
2022-11-22T17:09:46.656Z,78.94
2022-11-22T17:12:49.222Z,79.64
2022-11-22T17:15:55.046Z,79.14
2022-11-22T17:18:57.811Z,78.70
2022-11-22T17:22:02.077Z,80.30
2022-11-22T17:25:10.699Z,80.21
2022-11-22T17:28:13.359Z,79.54
2022-11-22T17:31:18.927Z,80.89
2022-11-22T17:34:21.592Z,81.15
2022-11-22T17:37:24.640Z,80.73
2022-11-22T17:40:27.216Z,81.06
2022-11-22T17:43:29.894Z,82.11
2022-11-22T17:46:38.287Z,81.49
2022-11-22T17:49:41.563Z,80.90
2022-11-22T17:52:46.828Z,80.61
2022-11-22T17:56:09.425Z,82.00
2022-11-22T17:59:19.656Z,81.38
2022-11-22T18:02:23.504Z,81.89
2022-11-22T18:05:25.984Z,81.97
2022-11-22T18:08:29.127Z,81.29
2022-11-22T18:11:34.203Z,81.92
2022-11-22T18:14:37.621Z,82.48
2022-11-22T18:17:44.499Z,82.44
2022-11-22T18:20:48.202Z,82.46
2022-11-22T18:23:51.098Z,82.30
2022-11-22T18:26:54.424Z,83.44
2022-11-22T18:29:57.481Z,83.53
2022-11-22T18:33:02.108Z,83.46
2022-11-22T18:36:07.141Z,83.32
2022-11-22T18:39:10.793Z,82.69
2022-11-22T18:42:16.096Z,83.83
2022-11-22T18:45:18.871Z,82.84
2022-11-22T18:48:22.957Z,82.96
2022-11-22T18:51:25.343Z,82.48
2022-11-22T18:54:28.058Z,81.44
2022-11-22T18:57:31.015Z,82.21
2022-11-22T19:00:33.791Z,82.65
2022-11-22T19:03:37.846Z,83.17
2022-11-22T19:06:59.618Z,81.31
2022-11-22T19:10:02.690Z,82.13
2022-11-22T19:13:05.498Z,82.57
2022-11-22T19:16:10.319Z,82.66
2022-11-22T19:19:14.660Z,82.65
2022-11-22T19:22:17.146Z,83.62
2022-11-22T19:25:19.850Z,83.06
2022-11-22T19:28:26.289Z,83.22
2022-11-22T19:31:31.151Z,82.71
2022-11-22T19:34:35.208Z,82.77
2022-11-22T19:37:37.950Z,83.45
2022-11-22T19:40:40.632Z,84.58
2022-11-22T19:43:44.134Z,84.35
2022-11-22T19:46:46.966Z,84.42
2022-11-22T19:49:51.124Z,84.18
2022-11-22T19:52:53.917Z,84.27
2022-11-22T19:56:02.445Z,84.07
2022-11-22T19:59:07.587Z,85.28
2022-11-22T20:02:10.391Z,85.98
2022-11-22T20:05:14.414Z,84.87
2022-11-22T20:08:17.275Z,85.22
2022-11-22T20:11:20.965Z,85.63
2022-11-22T20:14:23.654Z,86.58
2022-11-22T20:17:26.380Z,85.99
2022-11-22T20:20:30.603Z,85.77
2022-11-22T20:23:33.746Z,86.44
2022-11-22T20:26:39.563Z,85.98
2022-11-22T20:29:42.513Z,86.07
2022-11-22T20:32:45.372Z,86.09
2022-11-22T20:35:49.522Z,87.16
2022-11-22T20:38:53.256Z,86.69
2022-11-22T20:42:18.512Z,87.22
2022-11-22T20:45:18.796Z,87.34
2022-11-22T20:48:21.567Z,86.76
2022-11-22T20:51:27.128Z,86.56
2022-11-22T20:54:30.026Z,85.60
2022-11-22T20:57:32.987Z,86.71
2022-11-22T21:00:35.831Z,87.41
2022-11-22T21:03:38.762Z,85.65
2022-11-22T21:06:42.719Z,85.54
2022-11-22T21:09:45.325Z,86.58
2022-11-22T21:12:47.759Z,85.01
2022-11-22T21:15:50.303Z,85.56
2022-11-22T21:18:53.987Z,85.18
2022-11-22T21:21:57.843Z,85.32
2022-11-22T21:25:00.951Z,86.25
2022-11-22T21:28:03.470Z,86.67
2022-11-22T21:31:07.741Z,87.65
2022-11-22T21:34:10.902Z,87.64
2022-11-22T21:37:15.314Z,86.85
2022-11-22T21:40:17.851Z,87.53
2022-11-22T21:43:20.796Z,87.84
2022-11-22T21:46:23.595Z,87.95
2022-11-22T21:49:26.164Z,88.73
2022-11-22T21:52:30.778Z,87.70
2022-11-22T21:55:33.231Z,87.34
2022-11-22T21:58:35.884Z,87.83
2022-11-22T22:01:38.651Z,88.57
2022-11-22T22:04:41.123Z,88.13
2022-11-22T22:07:52.781Z,87.71
2022-11-22T22:10:58.749Z,87.80
2022-11-22T22:14:01.212Z,88.89
2022-11-22T22:17:04.377Z,88.80
2022-11-22T22:20:07.965Z,89.13
2022-11-22T22:23:11.800Z,89.62
2022-11-22T22:26:17.109Z,89.01
2022-11-22T22:29:19.748Z,89.39
2022-11-22T22:32:22.251Z,89.11
2022-11-22T22:35:24.755Z,89.42
2022-11-22T22:38:29.166Z,90.02
2022-11-22T22:41:31.696Z,89.52
2022-11-22T22:44:36.060Z,89.33
2022-11-22T22:47:38.561Z,88.91
2022-11-22T22:50:41.027Z,88.79
2022-11-22T22:53:45.491Z,90.00
2022-11-22T22:56:49.319Z,90.12
2022-11-22T22:59:51.928Z,90.12
2022-11-22T23:02:55.263Z,90.52
2022-11-22T23:05:57.784Z,90.28
2022-11-22T23:09:02.124Z,90.46
2022-11-22T23:12:10.855Z,91.54
2022-11-22T23:15:13.268Z,90.82
2022-11-22T23:18:35.328Z,91.32
2022-11-22T23:21:38.321Z,90.65
2022-11-22T23:24:42.108Z,91.10
2022-11-22T23:27:44.528Z,91.31
2022-11-22T23:30:47.305Z,90.87
2022-11-22T23:33:49.806Z,91.07
2022-11-22T23:36:52.250Z,90.15
2022-11-22T23:39:56.061Z,90.95
2022-11-22T23:42:58.846Z,90.86
2022-11-22T23:46:01.296Z,90.79
2022-11-22T23:49:04.908Z,90.68
2022-11-22T23:52:07.616Z,91.85
2022-11-22T23:55:11.476Z,90.85
2022-11-22T23:58:13.914Z,90.93
